createdAt,value
2022-09-26T00:02:04.036Z,11.00
2022-09-26T00:05:11.245Z,11.00
2022-09-26T00:08:15.545Z,11.10
2022-09-26T00:11:20.798Z,11.10
2022-09-26T00:14:26.273Z,11.10
2022-09-26T00:17:29.268Z,11.10
2022-09-26T00:20:32.239Z,11.10
2022-09-26T00:23:37.208Z,11.20
2022-09-26T00:26:40.379Z,11.20
2022-09-26T00:29:43.336Z,11.20
2022-09-26T00:32:46.283Z,11.20
2022-09-26T00:35:51.131Z,11.20
2022-09-26T00:38:55.851Z,11.20
2022-09-26T00:41:58.820Z,11.20
2022-09-26T00:45:01.792Z,11.20
2022-09-26T00:48:07.151Z,11.20
2022-09-26T00:51:10.603Z,11.10
2022-09-26T00:54:18.416Z,11.20
2022-09-26T00:57:27.256Z,11.20
2022-09-26T01:00:31.113Z,11.30
2022-09-26T01:03:36.762Z,11.30
2022-09-26T01:06:39.791Z,11.30
2022-09-26T01:09:44.253Z,11.20
2022-09-26T01:12:47.575Z,11.20
2022-09-26T01:15:50.540Z,11.20
2022-09-26T01:18:53.515Z,11.10
2022-09-26T01:22:18.444Z,11.10
2022-09-26T01:25:28.384Z,11.10
2022-09-26T01:28:46.394Z,11.00
2022-09-26T01:32:17.651Z,11.10
2022-09-26T01:35:38.738Z,11.10
2022-09-26T01:38:51.848Z,11.20
2022-09-26T01:42:03.685Z,11.30
2022-09-26T01:45:14.700Z,11.30
2022-09-26T01:48:22.579Z,11.40
2022-09-26T01:51:30.031Z,11.40
2022-09-26T01:54:38.874Z,11.50
2022-09-26T01:57:48.419Z,11.50
2022-09-26T02:00:52.488Z,11.50
2022-09-26T02:04:01.300Z,11.60
2022-09-26T02:07:10.795Z,11.60
2022-09-26T02:10:19.839Z,11.60
2022-09-26T02:13:27.839Z,11.60
2022-09-26T02:16:36.586Z,11.70
2022-09-26T02:19:47.535Z,11.70
2022-09-26T02:22:50.577Z,11.80
2022-09-26T02:25:54.028Z,11.80
2022-09-26T02:28:57.552Z,11.80
2022-09-26T02:32:03.920Z,11.70
2022-09-26T02:35:36.592Z,11.70
2022-09-26T02:38:39.568Z,11.70
2022-09-26T02:41:49.756Z,11.80
2022-09-26T02:45:09.257Z,11.80
2022-09-26T02:48:28.197Z,11.70
2022-09-26T02:51:54.280Z,11.70
2022-09-26T02:55:07.190Z,11.80
2022-09-26T02:58:20.515Z,11.80
2022-09-26T03:01:31.413Z,11.80
2022-09-26T03:04:42.594Z,11.70
2022-09-26T03:07:50.850Z,11.70
2022-09-26T03:10:55.910Z,11.80
2022-09-26T03:13:59.795Z,11.70
2022-09-26T03:17:04.127Z,11.80
2022-09-26T03:20:11.612Z,11.80
2022-09-26T03:23:16.006Z,11.80
2022-09-26T03:26:24.472Z,11.90
2022-09-26T03:29:27.583Z,11.90
2022-09-26T03:32:30.530Z,11.90
2022-09-26T03:35:33.499Z,11.90
2022-09-26T03:38:37.810Z,11.90
2022-09-26T03:41:42.131Z,11.90
2022-09-26T03:44:45.109Z,11.80
2022-09-26T03:47:48.054Z,11.90
2022-09-26T03:50:51.269Z,11.80
2022-09-26T03:53:55.612Z,11.80
2022-09-26T03:56:58.586Z,11.80
2022-09-26T04:00:01.805Z,11.80
2022-09-26T04:03:05.830Z,11.80
2022-09-26T04:06:13.439Z,11.80
2022-09-26T04:09:18.038Z,11.80
2022-09-26T04:12:21.411Z,11.80
2022-09-26T04:15:24.355Z,11.80
2022-09-26T04:18:27.633Z,11.90
2022-09-26T04:21:31.090Z,11.80
2022-09-26T04:24:35.817Z,11.80
2022-09-26T04:27:38.971Z,11.70
2022-09-26T04:30:42.308Z,11.70
2022-09-26T04:33:45.335Z,11.70
2022-09-26T04:36:48.414Z,11.80
2022-09-26T04:39:52.705Z,11.80
2022-09-26T04:42:55.650Z,11.90
2022-09-26T04:45:58.849Z,11.90
2022-09-26T04:49:02.161Z,11.90
2022-09-26T04:52:05.106Z,11.90
2022-09-26T04:55:10.383Z,11.80
2022-09-26T04:58:13.748Z,11.80
2022-09-26T05:01:19.025Z,11.90
2022-09-26T05:04:27.317Z,11.90
2022-09-26T05:07:31.384Z,11.90
2022-09-26T05:10:35.716Z,11.90
2022-09-26T05:13:39.049Z,11.90
2022-09-26T05:16:42.126Z,11.90
2022-09-26T05:19:45.386Z,11.90
2022-09-26T05:22:48.352Z,11.90
2022-09-26T05:26:10.070Z,11.90
2022-09-26T05:29:13.242Z,11.90
2022-09-26T05:32:20.698Z,11.90
2022-09-26T05:35:23.675Z,11.90
2022-09-26T05:38:26.620Z,11.90
2022-09-26T05:41:31.264Z,11.90
2022-09-26T05:44:34.325Z,12.00
2022-09-26T05:47:37.764Z,12.00
2022-09-26T05:50:43.590Z,12.00
2022-09-26T05:53:47.585Z,12.00
2022-09-26T05:56:51.913Z,12.10
2022-09-26T05:59:54.866Z,12.00
2022-09-26T06:02:58.686Z,12.10
2022-09-26T06:06:06.673Z,12.10
2022-09-26T06:09:09.636Z,12.10
2022-09-26T06:12:14.073Z,12.20
2022-09-26T06:15:17.326Z,12.30
2022-09-26T06:18:20.327Z,12.30
2022-09-26T06:21:23.939Z,12.30
2022-09-26T06:24:26.965Z,12.30
2022-09-26T06:27:34.947Z,12.30
2022-09-26T06:30:38.313Z,12.40
2022-09-26T06:33:41.354Z,12.40
2022-09-26T06:36:45.475Z,12.40
2022-09-26T06:39:48.444Z,12.40
2022-09-26T06:42:55.703Z,12.40
2022-09-26T06:45:58.717Z,12.50
2022-09-26T06:49:01.674Z,12.50
2022-09-26T06:52:05.044Z,12.50
2022-09-26T06:55:09.442Z,12.50
2022-09-26T06:58:13.758Z,12.60
2022-09-26T07:01:16.983Z,12.50
2022-09-26T07:04:20.062Z,12.50
2022-09-26T07:07:23.493Z,12.50
2022-09-26T07:10:26.533Z,12.50
2022-09-26T07:13:30.888Z,12.60
2022-09-26T07:16:33.938Z,12.60
2022-09-26T07:19:36.989Z,12.60
2022-09-26T07:22:40.024Z,12.70
2022-09-26T07:25:46.035Z,12.80
2022-09-26T07:28:54.452Z,12.80
2022-09-26T07:31:59.432Z,12.80
2022-09-26T07:35:03.450Z,12.80
2022-09-26T07:38:06.430Z,12.80
2022-09-26T07:41:10.855Z,12.80
2022-09-26T07:45:17.068Z,12.80
2022-09-26T07:47:55.546Z,12.80
2022-09-26T07:51:00.058Z,12.70
2022-09-26T07:54:03.002Z,12.70
2022-09-26T07:57:05.965Z,12.70
2022-09-26T08:00:13.517Z,12.70
2022-09-26T08:03:17.060Z,12.80
2022-09-26T08:06:20.872Z,12.80
2022-09-26T08:09:24.194Z,12.80
2022-09-26T08:12:27.982Z,12.80
2022-09-26T08:15:32.316Z,12.80
2022-09-26T08:18:35.312Z,12.80
2022-09-26T08:21:38.283Z,12.90
2022-09-26T08:24:44.202Z,13.00
2022-09-26T08:27:48.472Z,13.00
2022-09-26T08:30:52.792Z,13.10
2022-09-26T08:33:55.807Z,13.10
2022-09-26T08:36:59.078Z,13.10
2022-09-26T08:40:02.346Z,13.00
2022-09-26T08:43:13.567Z,13.10
2022-09-26T08:46:44.019Z,13.20
2022-09-26T08:49:59.645Z,13.30
2022-09-26T08:53:06.460Z,13.40
2022-09-26T08:56:19.572Z,13.40
2022-09-26T08:59:29.475Z,13.50
2022-09-26T09:02:40.143Z,13.60
2022-09-26T09:05:45.240Z,13.60
2022-09-26T09:08:51.776Z,13.60
2022-09-26T09:12:08.466Z,13.70
2022-09-26T09:15:29.587Z,13.70
2022-09-26T09:18:45.756Z,13.80
2022-09-26T09:22:05.784Z,13.90
2022-09-26T09:25:16.223Z,14.00
2022-09-26T09:28:32.224Z,14.10
2022-09-26T09:31:38.975Z,14.20
2022-09-26T09:34:50.260Z,14.30
2022-09-26T09:37:57.337Z,14.30
2022-09-26T09:41:03.838Z,14.20
2022-09-26T09:44:21.232Z,14.10
2022-09-26T09:47:28.537Z,14.00
2022-09-26T09:50:47.758Z,14.00
2022-09-26T09:54:05.160Z,13.90
2022-09-26T09:57:39.544Z,13.90
2022-09-26T10:00:51.057Z,13.90
2022-09-26T10:04:04.584Z,13.90
2022-09-26T10:07:08.960Z,14.00
2022-09-26T10:10:15.747Z,14.00
2022-09-26T10:13:19.191Z,14.10
2022-09-26T10:16:22.742Z,14.20
2022-09-26T10:19:35.080Z,14.20
2022-09-26T10:22:45.754Z,14.30
2022-09-26T10:25:50.587Z,14.30
2022-09-26T10:28:56.590Z,14.30
2022-09-26T10:32:00.402Z,14.40
2022-09-26T10:35:07.655Z,14.40
2022-09-26T10:38:21.666Z,14.40
2022-09-26T10:41:25.631Z,14.50
2022-09-26T10:44:32.368Z,14.50
2022-09-26T10:47:35.387Z,14.60
2022-09-26T10:50:39.369Z,14.60
2022-09-26T10:53:45.480Z,14.70
2022-09-26T10:56:54.148Z,14.80
2022-09-26T11:00:00.279Z,14.80
2022-09-26T11:03:04.440Z,14.90
2022-09-26T11:06:24.227Z,14.90
2022-09-26T11:09:29.311Z,14.90
2022-09-26T11:12:39.536Z,14.90
2022-09-26T11:15:53.044Z,14.80
2022-09-26T11:19:02.531Z,14.80
2022-09-26T11:22:14.509Z,14.90
2022-09-26T11:25:25.568Z,14.90
2022-09-26T11:28:34.283Z,14.80
2022-09-26T11:31:44.035Z,14.80
2022-09-26T11:34:47.375Z,14.70
2022-09-26T11:38:11.080Z,14.60
2022-09-26T11:41:38.996Z,14.50
2022-09-26T11:44:55.158Z,14.40
2022-09-26T11:48:24.943Z,14.20
2022-09-26T11:51:43.832Z,14.10
2022-09-26T11:55:09.111Z,14.00
2022-09-26T11:58:22.355Z,13.90
2022-09-26T12:01:38.143Z,13.80
2022-09-26T12:05:14.149Z,13.70
2022-09-26T12:08:38.131Z,13.60
2022-09-26T12:11:49.033Z,13.40
2022-09-26T12:15:03.135Z,13.40
2022-09-26T12:18:14.627Z,13.40
2022-09-26T12:21:30.639Z,13.40
2022-09-26T12:24:43.913Z,13.30
2022-09-26T12:27:53.824Z,13.30
2022-09-26T12:31:07.700Z,13.40
2022-09-26T12:34:32.738Z,13.30
2022-09-26T12:38:07.175Z,13.30
2022-09-26T12:41:39.303Z,13.40
2022-09-26T12:44:58.779Z,13.40
2022-09-26T12:48:29.631Z,13.50
2022-09-26T12:51:41.948Z,13.50
2022-09-26T12:55:02.399Z,13.50
2022-09-26T12:58:19.882Z,13.60
2022-09-26T13:01:51.926Z,13.60
2022-09-26T13:05:16.527Z,13.60
2022-09-26T13:08:25.884Z,13.60
2022-09-26T13:11:40.727Z,13.60
2022-09-26T13:15:00.831Z,13.60
2022-09-26T13:18:09.974Z,13.60
2022-09-26T13:21:18.917Z,13.50
2022-09-26T13:24:26.756Z,13.50
2022-09-26T13:27:36.201Z,13.50
2022-09-26T13:30:42.648Z,13.60
2022-09-26T13:33:49.796Z,13.70
2022-09-26T13:36:55.782Z,13.60
2022-09-26T13:40:06.737Z,13.60
2022-09-26T13:43:23.819Z,13.60
2022-09-26T13:46:36.147Z,13.70
2022-09-26T13:49:52.300Z,13.60
2022-09-26T13:53:13.804Z,13.60
2022-09-26T13:56:31.221Z,13.60
2022-09-26T13:59:54.322Z,13.50
2022-09-26T14:03:35.272Z,13.50
2022-09-26T14:06:38.374Z,13.40
2022-09-26T14:09:54.926Z,13.40
2022-09-26T14:13:08.345Z,13.30
2022-09-26T14:16:35.899Z,13.20
2022-09-26T14:19:42.805Z,13.00
2022-09-26T14:22:52.007Z,13.00
2022-09-26T14:26:05.171Z,12.90
2022-09-26T14:29:26.056Z,12.80
2022-09-26T14:32:36.275Z,12.80
2022-09-26T14:35:39.582Z,12.70
2022-09-26T14:38:42.736Z,12.60
2022-09-26T14:41:47.152Z,12.60
2022-09-26T14:44:56.112Z,12.60
2022-09-26T14:48:13.595Z,12.60
2022-09-26T14:51:27.099Z,12.60
2022-09-26T14:54:37.926Z,12.60
2022-09-26T14:57:42.292Z,12.60
2022-09-26T15:00:50.448Z,12.50
2022-09-26T15:04:00.593Z,12.50
2022-09-26T15:07:06.042Z,12.50
2022-09-26T15:10:21.705Z,12.60
2022-09-26T15:13:32.432Z,12.50
2022-09-26T15:16:42.105Z,12.60
2022-09-26T15:19:50.713Z,12.70
2022-09-26T15:22:57.181Z,12.50
2022-09-26T15:26:02.652Z,12.50
2022-09-26T15:29:08.815Z,12.50
2022-09-26T15:32:16.781Z,12.40
2022-09-26T15:35:20.670Z,12.40
2022-09-26T15:38:26.072Z,12.40
2022-09-26T15:41:55.151Z,12.40
2022-09-26T15:45:01.591Z,12.40
2022-09-26T15:48:06.201Z,12.40
2022-09-26T15:51:16.034Z,12.30
2022-09-26T15:54:26.117Z,12.40
2022-09-26T15:57:29.312Z,12.40
2022-09-26T16:00:36.385Z,12.50
2022-09-26T16:03:45.752Z,12.40
2022-09-26T16:06:58.592Z,12.40
2022-09-26T16:10:03.735Z,12.30
2022-09-26T16:13:07.973Z,12.40
2022-09-26T16:16:17.677Z,12.40
2022-09-26T16:19:30.795Z,12.40
2022-09-26T16:22:44.512Z,12.40
2022-09-26T16:25:58.076Z,12.30
2022-09-26T16:29:01.567Z,12.30
2022-09-26T16:32:06.566Z,12.30
2022-09-26T16:35:17.275Z,12.40
2022-09-26T16:38:26.020Z,12.40
2022-09-26T16:44:59.908Z,12.30
2022-09-26T16:48:05.461Z,12.40
2022-09-26T16:51:17.237Z,12.40
2022-09-26T16:54:20.653Z,12.40
2022-09-26T16:57:25.679Z,12.40
2022-09-26T17:00:52.211Z,12.40
2022-09-26T17:03:57.833Z,12.40
2022-09-26T17:07:03.568Z,12.50
2022-09-26T17:10:10.555Z,12.50
2022-09-26T17:13:17.102Z,12.50
2022-09-26T17:16:20.468Z,12.50
2022-09-26T17:19:26.560Z,12.50
2022-09-26T17:22:31.943Z,12.50
2022-09-26T17:25:36.392Z,12.50
2022-09-26T17:28:42.464Z,12.50
2022-09-26T17:31:45.581Z,12.60
2022-09-26T17:34:51.274Z,12.60
2022-09-26T17:37:54.563Z,12.60
2022-09-26T17:40:57.597Z,12.60
2022-09-26T17:44:00.821Z,12.70
2022-09-26T17:47:04.975Z,12.70
2022-09-26T17:50:17.582Z,12.60
2022-09-26T17:53:21.059Z,12.70
2022-09-26T17:56:26.122Z,12.70
2022-09-26T17:59:29.502Z,12.60
2022-09-26T18:02:36.107Z,12.70
2022-09-26T18:05:40.564Z,12.70
2022-09-26T18:08:45.357Z,12.70
2022-09-26T18:11:55.825Z,12.60
2022-09-26T18:15:03.149Z,12.60
2022-09-26T18:18:13.854Z,12.60
2022-09-26T18:21:19.859Z,12.70
2022-09-26T18:24:27.226Z,12.60
2022-09-26T18:27:30.292Z,12.60
2022-09-26T18:30:33.576Z,12.60
2022-09-26T18:33:38.181Z,12.60
2022-09-26T18:36:42.590Z,12.60
2022-09-26T18:39:45.569Z,12.60
2022-09-26T18:42:48.739Z,12.70
2022-09-26T18:45:52.091Z,12.60
2022-09-26T18:48:58.174Z,12.70
2022-09-26T18:52:02.868Z,12.70
2022-09-26T18:55:31.574Z,12.70
2022-09-26T18:58:35.885Z,12.70
2022-09-26T19:01:42.711Z,12.70
2022-09-26T19:04:45.954Z,12.70
2022-09-26T19:07:50.587Z,12.60
2022-09-26T19:10:54.885Z,12.60
2022-09-26T19:14:13.238Z,12.70
2022-09-26T19:17:16.257Z,12.70
2022-09-26T19:20:19.222Z,12.70
2022-09-26T19:23:23.878Z,12.70
2022-09-26T19:26:31.308Z,12.60
2022-09-26T19:29:39.004Z,12.60
2022-09-26T19:32:44.248Z,12.60
2022-09-26T19:35:47.471Z,12.60
2022-09-26T19:38:51.785Z,12.60
2022-09-26T19:41:54.786Z,12.50
2022-09-26T19:44:59.103Z,12.50
2022-09-26T19:48:04.485Z,12.50
2022-09-26T19:51:09.708Z,12.50
2022-09-26T19:54:18.428Z,12.50
2022-09-26T19:57:23.395Z,12.40
2022-09-26T20:00:26.499Z,12.40
2022-09-26T20:03:33.687Z,12.40
2022-09-26T20:06:36.630Z,12.30
2022-09-26T20:09:40.989Z,12.30
2022-09-26T20:12:44.162Z,12.20
2022-09-26T20:15:47.757Z,12.10
2022-09-26T20:18:51.563Z,12.10
2022-09-26T20:21:54.567Z,12.00
2022-09-26T20:24:58.927Z,11.90
2022-09-26T20:28:02.233Z,11.90
2022-09-26T20:31:11.294Z,11.90
2022-09-26T20:34:17.014Z,11.80
2022-09-26T20:37:23.675Z,11.80
2022-09-26T20:40:28.210Z,11.70
2022-09-26T20:43:34.591Z,11.70
2022-09-26T20:46:40.517Z,11.70
2022-09-26T20:49:47.156Z,11.70
2022-09-26T20:52:50.101Z,11.70
2022-09-26T20:55:55.764Z,11.60
2022-09-26T20:58:58.876Z,11.70
2022-09-26T21:02:04.648Z,11.60
2022-09-26T21:05:16.479Z,11.70
2022-09-26T21:08:26.892Z,11.60
2022-09-26T21:11:31.186Z,11.60
2022-09-26T21:14:34.114Z,11.60
2022-09-26T21:17:37.144Z,11.60
2022-09-26T21:20:40.141Z,11.60
2022-09-26T21:23:44.487Z,11.50
2022-09-26T21:26:48.763Z,11.60
2022-09-26T21:29:51.781Z,11.60
2022-09-26T21:32:57.739Z,11.60
2022-09-26T21:36:00.671Z,11.60
2022-09-26T21:39:03.781Z,11.60
2022-09-26T21:42:08.553Z,11.50
2022-09-26T21:45:12.932Z,11.60
2022-09-26T21:48:16.601Z,11.60
2022-09-26T21:51:21.105Z,11.50
2022-09-26T21:54:30.924Z,11.60
2022-09-26T21:57:39.543Z,11.60
2022-09-26T22:00:42.487Z,11.60
2022-09-26T22:03:45.452Z,11.60
2022-09-26T22:06:48.437Z,11.60
2022-09-26T22:09:51.384Z,11.60
2022-09-26T22:12:55.940Z,11.60
2022-09-26T22:16:05.949Z,11.60
2022-09-26T22:19:09.067Z,11.60
2022-09-26T22:22:12.100Z,11.60
2022-09-26T22:25:15.442Z,11.60
2022-09-26T22:28:20.839Z,11.60
2022-09-26T22:31:23.907Z,11.60
2022-09-26T22:34:27.149Z,11.60
2022-09-26T22:37:30.111Z,11.60
2022-09-26T22:40:33.174Z,11.60
2022-09-26T22:43:37.626Z,11.70
2022-09-26T22:46:40.624Z,11.70
2022-09-26T22:49:43.695Z,11.70
2022-09-26T22:52:46.808Z,11.80
2022-09-26T22:55:54.234Z,11.80
2022-09-26T22:58:58.526Z,11.80
2022-09-26T23:02:01.549Z,11.70
2022-09-26T23:05:04.919Z,11.70
2022-09-26T23:08:08.113Z,11.60
2022-09-26T23:11:12.415Z,11.60
2022-09-26T23:14:16.719Z,11.70
2022-09-26T23:17:19.645Z,11.70
2022-09-26T23:20:22.588Z,11.70
2022-09-26T23:23:25.606Z,11.70
2022-09-26T23:26:29.929Z,11.70
2022-09-26T23:29:34.230Z,11.70
2022-09-26T23:32:37.171Z,11.70
2022-09-26T23:35:40.361Z,11.70
2022-09-26T23:38:43.758Z,11.70
2022-09-26T23:41:46.693Z,11.60
2022-09-26T23:44:50.990Z,11.60
2022-09-26T23:47:53.945Z,11.60
2022-09-26T23:50:57.623Z,11.70
2022-09-26T23:54:01.027Z,11.70
2022-09-26T23:57:04.031Z,11.60
